createdAt,value
2019-02-23T00:01:00.727Z,44.90
2019-02-23T00:03:29.822Z,43.77
2019-02-23T00:05:58.759Z,45.17
2019-02-23T00:08:27.732Z,44.07
2019-02-23T00:10:56.738Z,42.27
2019-02-23T00:13:25.728Z,41.33
2019-02-23T00:15:54.865Z,43.00
2019-02-23T00:18:23.892Z,44.00
2019-02-23T00:20:52.868Z,42.17
2019-02-23T00:23:21.905Z,43.43
2019-02-23T00:25:50.869Z,45.07
2019-02-23T00:28:19.999Z,41.60
2019-02-23T00:30:49.083Z,44.10
2019-02-23T00:33:18.191Z,45.03
2019-02-23T00:35:47.123Z,43.93
2019-02-23T00:38:16.165Z,44.23
2019-02-23T00:40:45.235Z,42.37
2019-02-23T00:43:14.191Z,44.80
2019-02-23T00:45:43.217Z,42.10
2019-02-23T00:48:12.177Z,41.07
2019-02-23T00:50:41.242Z,40.63
2019-02-23T00:53:10.302Z,42.47
2019-02-23T00:55:39.405Z,44.23
2019-02-23T00:58:08.490Z,43.10
2019-02-23T01:00:37.579Z,43.17
2019-02-23T01:03:06.739Z,45.67
2019-02-23T01:05:35.704Z,44.27
2019-02-23T01:08:04.839Z,42.33
2019-02-23T01:10:33.801Z,43.10
2019-02-23T01:13:02.864Z,41.37
2019-02-23T01:15:31.927Z,40.87
2019-02-23T01:18:01.009Z,42.97
2019-02-23T01:20:30.103Z,43.07
2019-02-23T01:22:59.130Z,41.00
2019-02-23T01:25:28.204Z,42.80
2019-02-23T01:27:57.128Z,41.70
2019-02-23T01:30:26.241Z,43.17
2019-02-23T01:32:55.375Z,45.43
2019-02-23T01:35:24.563Z,43.30
2019-02-23T01:37:53.635Z,45.10
2019-02-23T01:40:22.675Z,44.17
2019-02-23T01:42:51.840Z,43.17
2019-02-23T01:45:20.949Z,42.40
2019-02-23T01:47:49.940Z,42.50
2019-02-23T01:50:18.995Z,42.60
2019-02-23T01:52:48.055Z,44.00
2019-02-23T01:55:17.087Z,43.60
2019-02-23T01:57:46.178Z,42.07
2019-02-23T02:00:16.339Z,42.47
2019-02-23T02:02:47.343Z,42.93
2019-02-23T02:05:16.360Z,43.87
2019-02-23T02:07:45.457Z,44.47
2019-02-23T02:10:15.335Z,44.03
2019-02-23T02:12:44.312Z,46.50
2019-02-23T02:15:14.506Z,47.33
2019-02-23T02:17:43.550Z,46.20
2019-02-23T02:20:12.628Z,47.17
2019-02-23T02:22:41.703Z,48.17
2019-02-23T02:25:10.741Z,49.07
2019-02-23T02:27:39.739Z,48.07
2019-02-23T02:30:10.144Z,46.33
2019-02-23T02:32:39.214Z,49.43
2019-02-23T02:35:09.264Z,50.30
2019-02-23T02:37:38.375Z,49.27
2019-02-23T02:40:08.435Z,48.63
2019-02-23T02:42:37.532Z,47.50
2019-02-23T02:45:08.237Z,47.90
2019-02-23T02:47:37.287Z,48.43
2019-02-23T02:50:08.090Z,46.40
2019-02-23T02:52:37.171Z,46.77
2019-02-23T02:55:07.168Z,47.33
2019-02-23T02:57:36.221Z,48.20
2019-02-23T03:00:06.404Z,46.47
2019-02-23T03:02:35.340Z,46.47
2019-02-23T03:05:04.600Z,48.07
2019-02-23T03:07:33.675Z,48.60
2019-02-23T03:10:02.697Z,47.93
2019-02-23T03:12:31.616Z,47.50
2019-02-23T03:15:00.659Z,46.77
2019-02-23T03:17:29.652Z,47.67
2019-02-23T03:19:58.643Z,45.80
2019-02-23T03:22:27.807Z,44.57
2019-02-23T03:24:56.936Z,45.47
2019-02-23T03:27:26.019Z,45.43
2019-02-23T03:29:55.003Z,43.70
2019-02-23T03:32:24.081Z,43.97
2019-02-23T03:34:53.071Z,43.80
2019-02-23T03:37:22.123Z,44.57
2019-02-23T03:39:51.129Z,43.00
2019-02-23T03:42:20.141Z,44.73
2019-02-23T03:44:49.099Z,44.50
2019-02-23T03:47:18.164Z,46.43
2019-02-23T03:49:47.245Z,45.80
2019-02-23T03:52:16.339Z,46.87
2019-02-23T03:54:45.420Z,45.07
2019-02-23T03:57:14.339Z,45.60
2019-02-23T03:59:43.352Z,45.83
2019-02-23T04:02:12.442Z,44.80
2019-02-23T04:04:41.523Z,46.07
2019-02-23T04:07:10.571Z,45.67
2019-02-23T04:09:39.669Z,44.97
2019-02-23T04:12:08.743Z,46.50
2019-02-23T04:14:37.783Z,44.23
2019-02-23T04:17:06.836Z,43.03
2019-02-23T04:19:35.857Z,44.43
2019-02-23T04:22:04.890Z,44.13
2019-02-23T04:24:33.905Z,46.60
2019-02-23T04:27:02.803Z,44.27
2019-02-23T04:29:31.865Z,43.97
2019-02-23T04:32:01.013Z,43.07
2019-02-23T04:34:30.083Z,44.83
2019-02-23T04:36:59.146Z,44.33
2019-02-23T04:39:28.125Z,45.80
2019-02-23T04:41:57.108Z,45.20
2019-02-23T04:44:25.994Z,44.97
2019-02-23T04:46:55.133Z,44.00
2019-02-23T04:49:26.021Z,45.97
2019-02-23T04:51:55.069Z,42.93
2019-02-23T04:54:24.215Z,44.10
2019-02-23T04:56:53.307Z,45.37
2019-02-23T04:59:22.389Z,45.83
2019-02-23T05:01:51.416Z,46.93
2019-02-23T05:04:20.407Z,46.63
2019-02-23T05:06:49.435Z,47.43
2019-02-23T05:09:18.531Z,47.80
2019-02-23T05:11:47.731Z,48.67
2019-02-23T05:14:16.815Z,47.37
2019-02-23T05:16:45.775Z,47.67
2019-02-23T05:19:14.860Z,47.10
2019-02-23T05:21:43.939Z,47.30
2019-02-23T05:24:13.050Z,49.20
2019-02-23T05:26:42.161Z,49.30
2019-02-23T05:29:11.276Z,48.57
2019-02-23T05:31:40.359Z,43.17
2019-02-23T05:34:09.424Z,39.23
2019-02-23T05:36:38.538Z,38.13
2019-02-23T05:39:07.799Z,36.07
2019-02-23T05:41:36.714Z,38.23
2019-02-23T05:44:05.754Z,38.60
2019-02-23T05:46:34.677Z,41.57
2019-02-23T05:49:03.763Z,40.80
2019-02-23T05:51:38.704Z,41.90
2019-02-23T05:54:03.619Z,42.63
2019-02-23T05:56:32.619Z,43.40
2019-02-23T05:59:01.701Z,44.53
2019-02-23T06:01:30.778Z,42.53
2019-02-23T06:03:59.748Z,43.20
2019-02-23T06:06:28.863Z,43.07
2019-02-23T06:08:57.792Z,41.87
2019-02-23T06:11:26.863Z,44.53
2019-02-23T06:13:55.817Z,42.90
2019-02-23T06:16:24.884Z,42.10
2019-02-23T06:18:53.755Z,43.23
2019-02-23T06:21:22.867Z,41.67
2019-02-23T06:23:51.846Z,43.53
2019-02-23T06:26:21.083Z,43.50
2019-02-23T06:28:50.140Z,41.70
2019-02-23T06:31:19.171Z,44.50
2019-02-23T06:33:48.122Z,43.87
2019-02-23T06:36:17.151Z,43.77
2019-02-23T06:38:46.242Z,43.70
2019-02-23T06:41:15.223Z,44.03
2019-02-23T06:43:44.215Z,44.33
2019-02-23T06:46:13.167Z,43.30
2019-02-23T06:48:42.178Z,43.50
2019-02-23T06:51:11.234Z,44.63
2019-02-23T06:53:40.345Z,43.90
2019-02-23T06:56:09.429Z,44.87
2019-02-23T06:58:38.521Z,44.87
2019-02-23T07:01:07.556Z,43.63
2019-02-23T07:03:37.135Z,45.63
2019-02-23T07:06:06.214Z,43.70
2019-02-23T07:08:35.192Z,44.23
2019-02-23T07:11:04.253Z,45.40
2019-02-23T07:13:33.144Z,44.77
2019-02-23T07:16:02.278Z,45.93
2019-02-23T07:18:31.340Z,45.00
2019-02-23T07:21:00.346Z,45.30
2019-02-23T07:23:29.438Z,44.17
2019-02-23T07:25:58.519Z,43.43
2019-02-23T07:28:27.530Z,43.87
2019-02-23T07:30:56.621Z,43.70
2019-02-23T07:33:32.685Z,44.20
2019-02-23T07:35:56.392Z,44.00
2019-02-23T07:38:25.393Z,43.80
2019-02-23T07:40:54.391Z,44.77
2019-02-23T07:43:23.466Z,43.93
2019-02-23T07:45:52.515Z,44.57
2019-02-23T07:48:21.531Z,45.70
2019-02-23T07:50:52.588Z,46.03
2019-02-23T07:53:21.298Z,46.77
2019-02-23T07:55:50.395Z,47.27
2019-02-23T07:58:19.489Z,45.97
2019-02-23T08:00:48.585Z,47.47
2019-02-23T08:03:17.578Z,46.90
2019-02-23T08:05:46.739Z,49.60
2019-02-23T08:08:15.811Z,46.03
2019-02-23T08:10:44.879Z,46.23
2019-02-23T08:13:13.951Z,48.63
2019-02-23T08:15:43.009Z,46.50
2019-02-23T08:18:12.030Z,47.03
2019-02-23T08:20:41.079Z,48.47
2019-02-23T08:23:10.102Z,51.07
2019-02-23T08:25:39.080Z,52.53
2019-02-23T08:28:08.192Z,52.43
2019-02-23T08:30:37.312Z,51.57
2019-02-23T08:33:06.313Z,50.07
2019-02-23T08:35:35.356Z,42.30
2019-02-23T08:38:04.468Z,39.70
2019-02-23T08:40:33.575Z,37.47
2019-02-23T08:43:02.588Z,37.00
2019-02-23T08:45:31.682Z,33.87
2019-02-23T08:48:00.715Z,32.80
2019-02-23T08:50:29.851Z,31.00
2019-02-23T08:52:58.875Z,31.07
2019-02-23T08:55:28.007Z,30.93
2019-02-23T08:57:57.084Z,30.43
2019-02-23T09:00:26.151Z,29.87
2019-02-23T09:02:55.232Z,28.67
2019-02-23T09:05:24.324Z,29.07
2019-02-23T09:07:53.383Z,28.03
2019-02-23T09:10:22.450Z,26.20
2019-02-23T09:12:51.366Z,27.17
2019-02-23T09:15:22.281Z,28.03
2019-02-23T09:17:51.090Z,25.17
2019-02-23T09:20:28.529Z,26.10
2019-02-23T09:22:59.780Z,23.77
2019-02-23T09:25:21.843Z,26.47
2019-02-23T09:27:50.900Z,27.00
2019-02-23T09:30:20.100Z,25.70
2019-02-23T09:32:49.195Z,24.27
2019-02-23T09:35:18.266Z,25.17
2019-02-23T09:37:47.342Z,25.23
2019-02-23T09:40:16.459Z,24.03
2019-02-23T09:42:45.555Z,24.73
2019-02-23T09:45:14.577Z,25.70
2019-02-23T09:47:43.588Z,24.23
2019-02-23T09:50:12.634Z,23.17
2019-02-23T09:52:41.611Z,23.63
2019-02-23T09:55:10.702Z,25.63
2019-02-23T09:57:39.863Z,26.57
2019-02-23T10:00:09.596Z,23.67
2019-02-23T10:02:38.653Z,26.03
2019-02-23T10:05:07.792Z,28.50
2019-02-23T10:07:36.957Z,27.50
2019-02-23T10:10:06.508Z,29.50
2019-02-23T10:12:35.561Z,26.97
2019-02-23T10:15:04.703Z,25.60
2019-02-23T10:17:33.752Z,26.10
2019-02-23T10:20:02.780Z,26.33
2019-02-23T10:22:31.666Z,24.33
2019-02-23T10:25:00.753Z,25.33
2019-02-23T10:27:29.714Z,23.57
2019-02-23T10:29:58.763Z,23.17
2019-02-23T10:32:27.674Z,23.57
2019-02-23T10:34:56.749Z,22.97
2019-02-23T10:37:25.874Z,20.47
2019-02-23T10:39:54.878Z,22.83
2019-02-23T10:42:23.928Z,20.37
2019-02-23T10:44:52.947Z,18.27
2019-02-23T10:47:21.851Z,19.33
2019-02-23T10:49:50.827Z,16.87
2019-02-23T10:52:19.920Z,17.57
2019-02-23T10:54:49.003Z,17.47
2019-02-23T10:57:18.039Z,18.27
2019-02-23T10:59:47.117Z,19.33
2019-02-23T11:02:16.151Z,18.40
2019-02-23T11:04:45.242Z,17.70
2019-02-23T11:07:14.314Z,16.90
2019-02-23T11:09:43.504Z,17.53
2019-02-23T11:12:12.635Z,18.30
2019-02-23T11:14:41.618Z,17.30
2019-02-23T11:17:10.701Z,17.30
2019-02-23T11:19:39.801Z,16.37
2019-02-23T11:22:08.913Z,17.87
2019-02-23T11:24:37.919Z,19.93
2019-02-23T11:27:07.016Z,17.77
2019-02-23T11:29:36.022Z,17.03
2019-02-23T11:32:05.124Z,17.00
2019-02-23T11:34:34.122Z,17.87
2019-02-23T11:37:03.179Z,16.97
2019-02-23T11:39:32.144Z,16.03
2019-02-23T11:42:01.230Z,15.83
2019-02-23T11:44:30.246Z,17.60
2019-02-23T11:47:00.160Z,16.87
2019-02-23T11:49:29.528Z,16.53
2019-02-23T11:51:58.527Z,16.53
2019-02-23T11:54:27.489Z,17.13
2019-02-23T11:56:56.508Z,18.70
2019-02-23T11:59:25.627Z,19.37
2019-02-23T12:01:54.679Z,18.83
2019-02-23T12:04:23.751Z,18.70
2019-02-23T12:06:52.755Z,18.63
2019-02-23T12:09:21.706Z,16.80
2019-02-23T12:11:50.679Z,17.97
2019-02-23T12:14:19.692Z,17.90
2019-02-23T12:16:48.767Z,17.40
2019-02-23T12:19:17.796Z,17.37
2019-02-23T12:21:46.939Z,17.60
2019-02-23T12:24:15.987Z,17.97
2019-02-23T12:26:44.957Z,17.97
2019-02-23T12:29:14.052Z,18.13
2019-02-23T12:31:43.121Z,19.17
2019-02-23T12:34:12.192Z,17.50
2019-02-23T12:36:41.231Z,18.90
2019-02-23T12:39:10.287Z,19.07
2019-02-23T12:41:39.378Z,17.93
2019-02-23T12:44:08.584Z,18.97
2019-02-23T12:46:37.611Z,14.90
2019-02-23T12:49:06.619Z,14.63
2019-02-23T12:51:35.653Z,13.00
2019-02-23T12:54:04.837Z,13.53
2019-02-23T12:56:33.891Z,13.37
2019-02-23T12:59:02.876Z,14.83
2019-02-23T13:01:31.852Z,14.57
2019-02-23T13:04:00.859Z,14.73
2019-02-23T13:06:29.819Z,13.83
2019-02-23T13:09:21.859Z,14.57
2019-02-23T13:12:27.829Z,14.60
2019-02-23T13:15:20.670Z,14.53
2019-02-23T13:18:21.958Z,14.43
2019-02-23T13:21:20.370Z,15.03
2019-02-23T13:24:13.895Z,14.37
2019-02-23T13:27:12.538Z,13.73
2019-02-23T13:30:10.815Z,14.80
2019-02-23T13:33:07.074Z,13.67
2019-02-23T13:36:32.607Z,13.53
2019-02-23T13:39:52.127Z,14.27
2019-02-23T13:42:44.967Z,12.77
2019-02-23T13:45:37.376Z,11.53
2019-02-23T13:48:33.267Z,12.43
2019-02-23T13:51:13.794Z,11.83
2019-02-23T13:54:20.403Z,12.17
2019-02-23T13:57:12.884Z,13.23
2019-02-23T14:00:14.725Z,13.23
2019-02-23T14:03:00.351Z,13.47
2019-02-23T14:06:31.895Z,11.83
2019-02-23T14:10:00.330Z,12.97
2019-02-23T14:13:24.044Z,13.10
2019-02-23T14:16:33.467Z,11.47
2019-02-23T14:19:32.511Z,13.47
2019-02-23T14:22:09.731Z,13.10
2019-02-23T14:25:23.256Z,12.47
2019-02-23T14:28:42.759Z,12.00
2019-02-23T14:31:52.031Z,13.20
2019-02-23T14:34:52.891Z,12.67
2019-02-23T14:37:58.527Z,12.87
2019-02-23T14:41:06.489Z,13.07
2019-02-23T14:44:05.333Z,12.70
2019-02-23T14:47:21.014Z,12.37
2019-02-23T14:50:13.030Z,12.30
2019-02-23T14:53:26.273Z,12.93
2019-02-23T14:56:54.547Z,12.93
2019-02-23T14:59:55.724Z,13.67
2019-02-23T15:03:08.410Z,12.53
2019-02-23T15:05:59.360Z,13.80
2019-02-23T15:09:30.588Z,13.70
2019-02-23T15:12:43.118Z,13.40
2019-02-23T15:16:16.602Z,14.43
2019-02-23T15:19:26.667Z,17.67
2019-02-23T15:22:32.531Z,17.30
2019-02-23T15:25:35.452Z,18.70
2019-02-23T15:28:30.235Z,17.83
2019-02-23T15:30:54.944Z,18.87
2019-02-23T15:34:07.243Z,17.67
2019-02-23T15:37:06.979Z,18.50
2019-02-23T15:40:03.255Z,17.90
2019-02-23T15:43:13.922Z,17.87
2019-02-23T15:46:13.859Z,18.27
2019-02-23T15:49:20.794Z,18.70
2019-02-23T15:51:49.821Z,18.60
2019-02-23T15:54:18.942Z,19.27
2019-02-23T15:56:48.153Z,18.10
2019-02-23T15:59:17.239Z,19.33
2019-02-23T16:01:46.327Z,18.23
2019-02-23T16:04:15.341Z,18.13
2019-02-23T16:06:44.504Z,18.00
2019-02-23T16:09:13.574Z,19.27
2019-02-23T16:11:45.106Z,18.37
2019-02-23T16:14:13.404Z,18.87
2019-02-23T16:16:42.359Z,18.83
2019-02-23T16:19:11.436Z,18.80
2019-02-23T16:21:40.395Z,19.17
2019-02-23T16:24:09.469Z,18.67
2019-02-23T16:26:38.541Z,19.57
2019-02-23T16:29:07.610Z,19.07
2019-02-23T16:31:36.674Z,18.47
2019-02-23T16:34:07.373Z,17.90
2019-02-23T16:36:36.432Z,17.93
2019-02-23T16:39:10.539Z,18.77
2019-02-23T16:41:39.789Z,17.87
2019-02-23T16:44:09.112Z,18.20
2019-02-23T16:46:38.129Z,18.87
2019-02-23T16:49:07.232Z,19.63
2019-02-23T16:51:36.323Z,19.10
2019-02-23T16:54:05.455Z,20.60
2019-02-23T16:56:34.359Z,21.13
2019-02-23T16:59:03.436Z,21.60
2019-02-23T17:01:32.495Z,22.40
2019-02-23T17:04:01.507Z,22.40
2019-02-23T17:06:32.851Z,21.40
2019-02-23T17:09:01.208Z,21.60
2019-02-23T17:11:30.175Z,21.53
2019-02-23T17:13:59.250Z,21.67
2019-02-23T17:16:28.250Z,22.30
2019-02-23T17:18:57.338Z,20.53
2019-02-23T17:21:26.584Z,21.47
2019-02-23T17:23:55.571Z,22.93
2019-02-23T17:26:24.487Z,22.67
2019-02-23T17:28:53.631Z,22.10
2019-02-23T17:31:22.717Z,22.47
2019-02-23T17:33:51.742Z,23.77
2019-02-23T17:36:21.217Z,23.20
2019-02-23T17:38:50.285Z,21.93
2019-02-23T17:41:19.387Z,21.27
2019-02-23T17:43:48.369Z,21.07
2019-02-23T17:46:17.436Z,23.80
2019-02-23T17:48:46.427Z,22.20
2019-02-23T17:51:15.659Z,22.33
2019-02-23T17:53:44.754Z,24.00
2019-02-23T17:56:14.649Z,22.37
2019-02-23T17:58:43.953Z,21.40
2019-02-23T18:01:13.080Z,22.47
2019-02-23T18:03:42.236Z,21.63
2019-02-23T18:06:11.275Z,22.87
2019-02-23T18:08:40.348Z,21.53
2019-02-23T18:11:09.460Z,22.40
2019-02-23T18:13:38.456Z,22.37
2019-02-23T18:16:07.539Z,23.10
2019-02-23T18:18:36.618Z,21.27
2019-02-23T18:21:05.705Z,22.63
2019-02-23T18:23:34.640Z,21.63
2019-02-23T18:26:03.657Z,22.80
2019-02-23T18:28:32.699Z,23.80
2019-02-23T18:31:01.815Z,36.87
2019-02-23T18:33:30.884Z,41.83
2019-02-23T18:35:59.948Z,33.83
2019-02-23T18:38:28.946Z,27.00
2019-02-23T18:40:58.023Z,23.97
2019-02-23T18:43:27.079Z,22.23
2019-02-23T18:45:56.134Z,20.93
2019-02-23T18:48:25.196Z,19.67
2019-02-23T18:50:54.215Z,21.83
2019-02-23T18:53:23.187Z,21.03
2019-02-23T18:55:52.109Z,21.87
2019-02-23T18:58:21.121Z,21.63
2019-02-23T19:00:50.231Z,21.70
2019-02-23T19:03:19.264Z,22.87
2019-02-23T19:05:50.085Z,20.50
2019-02-23T19:08:18.958Z,21.80
2019-02-23T19:10:48.020Z,22.70
2019-02-23T19:13:17.143Z,22.30
2019-02-23T19:15:46.227Z,22.60
2019-02-23T19:18:15.265Z,21.97
2019-02-23T19:20:44.387Z,21.67
2019-02-23T19:23:13.408Z,22.87
2019-02-23T19:25:42.431Z,22.53
2019-02-23T19:28:11.551Z,21.00
2019-02-23T19:30:40.603Z,21.90
2019-02-23T19:33:09.646Z,20.37
2019-02-23T19:35:38.698Z,21.03
2019-02-23T19:38:07.690Z,19.23
2019-02-23T19:40:36.764Z,19.67
2019-02-23T19:43:05.835Z,18.40
2019-02-23T19:45:35.010Z,18.50
2019-02-23T19:48:04.100Z,17.03
2019-02-23T19:50:39.894Z,17.10
2019-02-23T19:53:08.872Z,16.97
2019-02-23T19:55:37.959Z,16.07
2019-02-23T19:58:07.031Z,16.80
2019-02-23T20:00:36.047Z,16.53
2019-02-23T20:03:05.115Z,16.83
2019-02-23T20:05:34.231Z,16.10
2019-02-23T20:08:03.221Z,15.77
2019-02-23T20:10:32.280Z,15.70
2019-02-23T20:13:01.345Z,15.50
2019-02-23T20:15:30.405Z,14.50
2019-02-23T20:17:59.455Z,15.13
2019-02-23T20:20:28.454Z,15.37
2019-02-23T20:22:57.436Z,14.70
2019-02-23T20:25:26.433Z,15.83
2019-02-23T20:27:55.464Z,14.83
2019-02-23T20:30:24.443Z,15.97
2019-02-23T20:32:53.368Z,16.40
2019-02-23T20:35:22.374Z,15.17
2019-02-23T20:37:51.385Z,15.53
2019-02-23T20:40:20.519Z,15.10
2019-02-23T20:42:49.523Z,15.53
2019-02-23T20:45:18.614Z,15.73
2019-02-23T20:47:47.696Z,16.13
2019-02-23T20:50:16.847Z,15.77
2019-02-23T20:52:45.931Z,16.47
2019-02-23T20:55:15.075Z,16.03
2019-02-23T20:57:44.279Z,15.70
2019-02-23T21:00:13.451Z,16.33
2019-02-23T21:02:42.649Z,17.30
2019-02-23T21:05:11.881Z,16.60
2019-02-23T21:07:40.903Z,15.73
2019-02-23T21:10:10.164Z,16.33
2019-02-23T21:12:39.152Z,16.03
2019-02-23T21:15:08.234Z,17.37
2019-02-23T21:17:37.307Z,16.93
2019-02-23T21:20:06.416Z,18.30
2019-02-23T21:22:35.420Z,17.03
2019-02-23T21:25:04.641Z,16.53
2019-02-23T21:27:33.712Z,17.20
2019-02-23T21:30:02.787Z,17.20
2019-02-23T21:32:31.809Z,18.97
2019-02-23T21:35:00.822Z,18.30
2019-02-23T21:37:29.835Z,17.07
2019-02-23T21:39:58.803Z,18.43
2019-02-23T21:42:27.800Z,17.87
2019-02-23T21:44:58.000Z,18.73
2019-02-23T21:47:27.135Z,17.93
2019-02-23T21:49:56.128Z,18.07
2019-02-23T21:52:25.219Z,17.23
2019-02-23T21:54:54.200Z,17.57
2019-02-23T21:57:23.200Z,18.40
2019-02-23T21:59:52.285Z,21.47
2019-02-23T22:02:40.492Z,21.67
2019-02-23T22:05:12.493Z,21.20
2019-02-23T22:07:40.331Z,19.27
2019-02-23T22:10:09.502Z,19.83
2019-02-23T22:12:38.582Z,19.13
2019-02-23T22:15:07.675Z,20.37
2019-02-23T22:17:36.818Z,18.93
2019-02-23T22:20:05.996Z,20.73
2019-02-23T22:22:35.136Z,20.37
2019-02-23T22:25:04.273Z,19.93
2019-02-23T22:27:33.435Z,20.73
2019-02-23T22:30:02.416Z,19.67
2019-02-23T22:32:31.501Z,19.60
2019-02-23T22:35:00.661Z,19.03
2019-02-23T22:37:29.772Z,19.30
2019-02-23T22:39:58.879Z,19.20
2019-02-23T22:42:27.971Z,17.97
2019-02-23T22:44:56.969Z,18.33
2019-02-23T22:47:25.983Z,18.03
2019-02-23T22:49:55.063Z,18.07
2019-02-23T22:52:24.143Z,18.43
2019-02-23T22:54:53.079Z,18.70
2019-02-23T22:57:22.115Z,18.63
2019-02-23T22:59:51.198Z,18.10
2019-02-23T23:02:20.258Z,18.47
2019-02-23T23:04:49.367Z,16.67
2019-02-23T23:07:18.513Z,17.10
2019-02-23T23:09:47.615Z,16.43
2019-02-23T23:12:16.688Z,16.13
2019-02-23T23:14:45.673Z,17.60
2019-02-23T23:17:14.728Z,16.40
2019-02-23T23:19:43.743Z,15.40
2019-02-23T23:22:12.740Z,15.77
2019-02-23T23:24:41.828Z,14.77
2019-02-23T23:27:10.818Z,14.63
2019-02-23T23:29:39.875Z,14.77
2019-02-23T23:32:08.887Z,13.33
2019-02-23T23:34:37.855Z,14.43
2019-02-23T23:37:06.910Z,14.20
2019-02-23T23:39:35.920Z,14.93
2019-02-23T23:42:04.980Z,14.93
2019-02-23T23:44:33.998Z,13.53
2019-02-23T23:47:03.107Z,15.87
2019-02-23T23:49:32.132Z,15.07
2019-02-23T23:52:01.226Z,14.40
2019-02-23T23:54:30.354Z,13.73
2019-02-23T23:56:59.326Z,13.67
2019-02-23T23:59:28.358Z,14.93
